LTAT/MLX METAR and TAF weather

Enter ICAO airport designator
Station Type Date Time Source
LTAT METAR 2018/12/13 08:20 UTC NOAA

LTAT 130820Z 34009KT 9999 FEW040 SCT100 05/M03 Q1022 NOSIG


Station Type Date Time Source
LTAT Decoded METAR 2018/12/13 08:20 UTC NOAA

Malatya / Erhac, Turkey (LTAT) 38-26N 038-05E 849M
Dec 13, 2018 - 03:20 AM EST / 2018.12.13 0820 UTC
Wind: from the NNW (340 degrees) at 10 MPH (9 KT):0
Visibility: greater than 7 mile(s):0
Sky conditions: partly cloudy
Temperature: 41 F (5 C)
Dew Point: 26 F (-3 C)
Relative Humidity: 56%
Pressure (altimeter): 30.18 in. Hg (1022 hPa)
ob: LTAT 130820Z 34009KT 9999 FEW040 SCT100 05/M03 Q1022 NOSIG
cycle: 8

Station Type Date Time Source
LTAT TAF 2018/12/13 06:03 UTC NOAA

TAF LTAT 130440Z 1306/1406 24008KT 9999 SCT040 BKN100 PROB30 1402/1406 4000 -RA BR BKN020 OVC080


Example: see airport list